Broadwell, Illinois
Current Conditions -  °F | °C
As of 10:52 PM on Sunday 21 Dec 2014 (Local Time) from KSPI Reporting Station
Overcast Overcast  
Wind Chill:   Ceiling: 4900
Heat Index:   Visibility: 10mi
Dew Point: -1°   Wind: 9mph
Humidity: 73%   Direction: 150°SSE
Pressure: 29.97"   Gusts: NA
Location:  39.9935°N, 89.4758°W
Report Text: KSPI 220452Z AUTO 15008KT 10SM SCT037 OVC049 04/M01 A2997 RMK AO2 SLP151 T00391006
Loading
Personal Weather Stations






























Interactive Weather Map New forecast layout! Learn more

10-Day Weather Forecast

Advertisements
Track Severe Weather on mobile